Time;durP1;ratioP1;P1;durP2;ratioP2;P2;SDS_P1;SDS_P2;PMS_P1;PMS_P2;Temp;Humidity;BMP_temperature;BMP_pressure;BME280_temperature;BME280_humidity;BME280_pressure;Samples;Min_cycle;Max_cycle;Signal;HPM_P1;HPM_P2
2022/03/29 00:00:39;;;;;;;9.38;7.63;;;15.00;63.00;;;;;;5036441;28;20146;-80
2022/03/29 00:03:06;;;;;;;9.43;7.10;;;15.00;63.10;;;;;;5021133;28;20052;-80
2022/03/29 00:05:32;;;;;;;10.05;6.80;;;15.00;63.00;;;;;;5040715;28;20052;-79
2022/03/29 00:07:58;;;;;;;9.95;6.88;;;15.00;63.10;;;;;;5040884;28;20606;-82
2022/03/29 00:10:24;;;;;;;9.45;7.72;;;15.00;63.10;;;;;;5040700;28;20160;-80
2022/03/29 00:12:53;;;;;;;9.35;6.53;;;15.00;63.10;;;;;;5041182;28;20037;-80
2022/03/29 00:15:20;;;;;;;11.60;7.03;;;15.00;63.00;;;;;;5040508;28;20103;-80
2022/03/29 00:17:47;;;;;;;10.00;6.70;;;15.00;63.10;;;;;;5024569;28;20048;-81
2022/03/29 00:20:14;;;;;;;10.02;6.85;;;15.00;63.00;;;;;;5040592;28;20037;-80
2022/03/29 00:22:40;;;;;;;10.23;6.90;;;15.00;63.00;;;;;;5040566;28;20444;-79
2022/03/29 00:25:07;;;;;;;8.52;6.57;;;15.00;62.90;;;;;;5040373;28;20079;-80
2022/03/29 00:27:35;;;;;;;9.27;6.50;;;14.90;63.00;;;;;;5024142;28;20148;-80
2022/03/29 00:30:01;;;;;;;11.68;7.75;;;14.90;62.90;;;;;;5040303;28;20059;-79
2022/03/29 00:32:27;;;;;;;11.55;7.75;;;14.90;63.00;;;;;;5039912;28;20049;-79
2022/03/29 00:34:53;;;;;;;10.13;7.10;;;14.90;63.00;;;;;;5058318;28;20137;-78
2022/03/29 00:37:18;;;;;;;10.93;7.45;;;14.90;63.00;;;;;;5058133;28;20131;-79
2022/03/29 00:39:44;;;;;;;11.25;7.78;;;14.90;63.00;;;;;;5040288;28;20460;-82
2022/03/29 00:42:10;;;;;;;10.32;8.63;;;14.80;62.50;;;;;;5023816;28;20091;-81
2022/03/29 00:44:38;;;;;;;12.05;8.18;;;14.80;62.80;;;;;;5040150;28;20124;-79
2022/03/29 00:47:05;;;;;;;10.80;8.13;;;14.80;63.00;;;;;;5040435;28;20056;-80
2022/03/29 00:49:31;;;;;;;10.23;7.80;;;14.80;63.00;;;;;;5040757;28;20045;-81
2022/03/29 00:52:01;;;;;;;10.77;8.23;;;14.80;63.00;;;;;;5058001;28;20412;-81
2022/03/29 00:54:35;;;;;;;11.60;8.13;;;14.80;62.90;;;;;;5057764;28;20368;-81
2022/03/29 00:57:03;;;;;;;10.25;7.32;;;14.80;62.80;;;;;;5039462;28;20475;-81
2022/03/29 00:59:29;;;;;;;11.57;7.25;;;14.80;62.90;;;;;;5057930;28;20082;-80
2022/03/29 01:01:59;;;;;;;12.38;7.93;;;14.80;62.60;;;;;;5055060;28;20045;-77
2022/03/29 01:04:25;;;;;;;9.27;7.55;;;14.80;62.90;;;;;;5076995;28;20455;-79
2022/03/29 01:06:53;;;;;;;11.52;8.23;;;14.70;62.70;;;;;;5059674;28;20052;-81
2022/03/29 01:09:19;;;;;;;10.57;7.93;;;14.70;62.80;;;;;;5060303;28;20098;-81
2022/03/29 01:11:45;;;;;;;11.30;7.35;;;14.70;62.80;;;;;;5043447;28;20490;-81
2022/03/29 01:14:11;;;;;;;9.98;8.02;;;14.70;63.00;;;;;;5076603;28;20048;-80
2022/03/29 01:19:40;;;;;;;11.63;7.30;;;14.60;62.70;;;;;;4999718;28;20073;-78
2022/03/29 01:22:09;;;;;;;9.20;6.93;;;14.60;62.90;;;;;;5047964;28;20376;-80
2022/03/29 01:24:42;;;;;;;12.57;8.48;;;14.60;62.90;;;;;;5059966;28;20056;-79
2022/03/29 01:27:11;;;;;;;12.35;8.18;;;14.40;62.40;;;;;;5059609;28;20084;-77
2022/03/29 01:29:38;;;;;;;10.80;8.10;;;14.40;62.80;;;;;;5077358;28;20048;-79
2022/03/29 01:32:11;;;;;;;11.18;7.85;;;14.50;63.00;;;;;;5083455;28;20068;-80
2022/03/29 01:34:40;;;;;;;10.40;7.97;;;14.50;63.10;;;;;;5079269;28;20051;-80
2022/03/29 01:37:07;;;;;;;13.65;8.98;;;14.50;62.90;;;;;;5079453;28;20048;-78
2022/03/29 01:39:33;;;;;;;11.30;8.25;;;14.50;62.80;;;;;;5097229;28;20052;-79
2022/03/29 01:42:00;;;;;;;11.43;8.20;;;14.40;62.80;;;;;;5078943;28;20052;-79
2022/03/29 01:44:26;;;;;;;13.52;9.13;;;14.40;62.90;;;;;;5096899;28;20054;-80
2022/03/29 01:46:53;;;;;;;11.70;9.30;;;14.50;63.00;;;;;;5079184;28;20410;-79
2022/03/29 01:49:19;;;;;;;14.35;9.38;;;14.40;62.90;;;;;;5078962;28;20075;-80
2022/03/29 01:51:45;;;;;;;14.00;9.18;;;14.30;63.10;;;;;;5039059;28;20055;-80
2022/03/29 01:54:11;;;;;;;12.02;8.80;;;14.30;62.90;;;;;;5038845;28;20047;-80
2022/03/29 01:56:37;;;;;;;13.55;8.45;;;14.40;63.00;;;;;;5038543;28;20045;-80
2022/03/29 01:59:07;;;;;;;15.70;9.63;;;14.40;63.10;;;;;;5056341;28;20048;-79
2022/03/29 02:01:46;;;;;;;14.80;9.60;;;14.40;63.10;;;;;;5046935;28;20033;-79
2022/03/29 02:04:12;;;;;;;12.05;9.30;;;14.40;62.70;;;;;;5053053;28;20045;-80
2022/03/29 02:06:39;;;;;;;16.20;9.93;;;14.40;63.00;;;;;;5038979;28;20049;-80
2022/03/29 02:09:08;;;;;;;13.85;9.75;;;14.40;62.70;;;;;;5038864;28;20120;-80
2022/03/29 02:11:41;;;;;;;13.15;9.70;;;14.40;62.50;;;;;;5038513;28;20079;-80
2022/03/29 02:14:07;;;;;;;14.52;9.82;;;14.40;62.20;;;;;;5039377;28;20059;-83
2022/03/29 02:16:33;;;;;;;13.07;9.50;;;14.30;62.30;;;;;;5038476;28;20109;-81
2022/03/29 02:18:59;;;;;;;13.98;9.55;;;14.30;62.50;;;;;;5022012;28;20052;-81
2022/03/29 02:21:25;;;;;;;11.75;8.70;;;14.30;62.80;;;;;;5038725;28;20100;-79
2022/03/29 02:23:51;;;;;;;12.07;9.25;;;14.30;62.90;;;;;;5038564;28;20435;-80
2022/03/29 02:26:17;;;;;;;12.70;9.93;;;14.30;62.90;;;;;;5071158;28;20048;-82
2022/03/29 02:28:43;;;;;;;11.93;9.20;;;14.30;62.70;;;;;;5075459;28;20054;-81
2022/03/29 02:31:10;;;;;;;12.77;9.13;;;14.30;62.70;;;;;;5075731;28;20045;-80
2022/03/29 02:33:35;;;;;;;14.70;9.88;;;14.40;62.80;;;;;;5058178;28;20128;-80
2022/03/29 02:36:01;;;;;;;14.13;10.05;;;14.40;62.60;;;;;;5076331;28;20127;-79
2022/03/29 02:38:27;;;;;;;13.93;9.57;;;14.40;62.50;;;;;;5058458;28;20451;-80
2022/03/29 02:40:57;;;;;;;12.80;9.27;;;14.40;62.60;;;;;;5075755;28;20077;-78
2022/03/29 02:43:24;;;;;;;11.98;8.82;;;14.40;62.60;;;;;;5075427;28;20063;-79
2022/03/29 02:45:50;;;;;;;14.57;10.07;;;14.40;62.50;;;;;;5075794;28;20097;-81
2022/03/29 02:48:16;;;;;;;13.07;9.48;;;14.50;62.30;;;;;;5058009;28;20066;-79
2022/03/29 02:50:42;;;;;;;13.35;9.77;;;14.50;62.30;;;;;;5075779;28;20403;-79
2022/03/29 02:53:08;;;;;;;17.17;10.50;;;14.50;62.10;;;;;;5074930;28;20044;-79
2022/03/29 02:55:34;;;;;;;15.23;9.93;;;14.50;62.10;;;;;;5057196;28;20132;-79
2022/03/29 02:58:00;;;;;;;13.63;9.60;;;14.50;62.00;;;;;;5056141;28;20071;-79
2022/03/29 03:00:26;;;;;;;13.40;9.48;;;14.50;61.90;;;;;;5041254;28;20060;-78
2022/03/29 03:02:57;;;;;;;14.38;10.32;;;14.50;61.70;;;;;;5075346;28;20047;-81
2022/03/29 03:05:25;;;;;;;13.43;8.75;;;14.40;62.30;;;;;;5041289;28;20048;-81
2022/03/29 03:07:51;;;;;;;13.60;9.52;;;14.40;61.90;;;;;;5075120;28;20375;-78
2022/03/29 03:10:17;;;;;;;13.98;9.68;;;14.40;61.90;;;;;;5056903;28;20053;-79
2022/03/29 03:12:46;;;;;;;13.02;9.02;;;14.40;62.00;;;;;;5057494;28;20052;-79
2022/03/29 03:15:17;;;;;;;13.77;9.57;;;14.40;62.20;;;;;;5057622;28;20063;-79
2022/03/29 03:17:43;;;;;;;13.02;8.52;;;14.40;62.20;;;;;;5058119;28;20379;-78
2022/03/29 03:20:09;;;;;;;14.07;9.48;;;14.40;62.20;;;;;;5041353;28;20048;-80
2022/03/29 03:22:39;;;;;;;14.30;9.68;;;14.40;62.20;;;;;;5056827;28;20201;-79
2022/03/29 03:25:06;;;;;;;11.95;9.63;;;14.40;62.10;;;;;;5057293;28;20051;-80
2022/03/29 03:27:34;;;;;;;11.25;8.93;;;14.40;62.90;;;;;;5057970;28;20149;-79
2022/03/29 03:30:00;;;;;;;12.98;8.93;;;14.40;62.30;;;;;;5057563;28;20186;-80
2022/03/29 03:32:26;;;;;;;13.07;8.98;;;14.40;62.30;;;;;;5058189;28;20131;-78
2022/03/29 03:34:51;;;;;;;15.15;8.88;;;14.40;62.30;;;;;;5040736;28;20218;-80
2022/03/29 03:37:17;;;;;;;10.55;8.05;;;14.40;62.20;;;;;;5075022;28;20036;-79
2022/03/29 03:39:43;;;;;;;12.55;8.40;;;14.40;62.20;;;;;;5060960;28;20448;-79
2022/03/29 03:42:12;;;;;;;12.25;8.05;;;14.40;62.00;;;;;;5078998;28;20135;-79
2022/03/29 03:44:39;;;;;;;12.57;8.50;;;14.40;62.10;;;;;;5045070;28;20086;-79
2022/03/29 03:47:07;;;;;;;11.20;8.00;;;14.40;62.10;;;;;;5061416;28;20060;-79
2022/03/29 03:49:34;;;;;;;11.68;8.73;;;14.40;62.00;;;;;;5079539;28;20060;-80
2022/03/29 03:51:59;;;;;;;12.30;8.50;;;14.40;62.00;;;;;;5061365;28;20059;-79
2022/03/29 03:54:25;;;;;;;12.85;9.20;;;14.40;62.00;;;;;;5078076;28;20132;-79
2022/03/29 03:56:51;;;;;;;13.82;8.23;;;14.40;61.80;;;;;;5060794;28;20439;-80
2022/03/29 03:59:16;;;;;;;10.23;8.18;;;14.40;61.80;;;;;;5044567;28;20040;-78
2022/03/29 04:01:42;;;;;;;12.52;8.20;;;14.40;61.90;;;;;;5050513;28;20132;-78
2022/03/29 04:04:08;;;;;;;14.13;8.65;;;14.40;62.00;;;;;;5005284;28;20384;-79
2022/03/29 04:06:33;;;;;;;13.23;8.98;;;14.40;61.90;;;;;;5037770;28;20064;-80
2022/03/29 04:08:59;;;;;;;12.15;8.98;;;14.40;62.00;;;;;;5038512;28;20410;-80
2022/03/29 04:11:26;;;;;;;16.17;9.32;;;14.40;61.90;;;;;;5038369;28;20060;-80
2022/03/29 04:13:52;;;;;;;12.73;9.50;;;14.40;61.90;;;;;;5039184;28;20053;-79
2022/03/29 04:16:18;;;;;;;14.35;9.55;;;14.30;61.80;;;;;;5038626;28;20052;-79
2022/03/29 04:18:44;;;;;;;12.82;9.00;;;14.30;61.80;;;;;;5046346;28;20342;-78
2022/03/29 04:21:11;;;;;;;14.77;9.68;;;14.30;61.90;;;;;;5040700;28;20083;-79
2022/03/29 04:23:37;;;;;;;14.60;9.95;;;14.30;62.10;;;;;;5040972;28;20059;-81
2022/03/29 04:26:03;;;;;;;12.70;8.77;;;14.30;62.10;;;;;;5058166;28;20045;-78
2022/03/29 04:28:31;;;;;;;12.95;9.70;;;14.30;62.20;;;;;;5057960;28;20048;-79
2022/03/29 04:30:59;;;;;;;12.15;8.45;;;14.30;62.70;;;;;;5040305;28;20053;-79
2022/03/29 04:33:28;;;;;;;15.23;10.23;;;14.30;62.20;;;;;;5060683;28;20056;-78
2022/03/29 04:35:55;;;;;;;14.25;9.48;;;14.30;62.20;;;;;;5077552;28;20040;-79
2022/03/29 04:38:23;;;;;;;12.48;9.38;;;14.30;62.10;;;;;;5061123;28;20087;-79
2022/03/29 04:40:49;;;;;;;13.30;9.18;;;14.30;62.00;;;;;;5077686;28;20044;-80
2022/03/29 04:43:14;;;;;;;11.95;9.50;;;14.20;62.10;;;;;;5060566;28;20071;-79
2022/03/29 04:45:41;;;;;;;14.73;9.50;;;14.20;62.30;;;;;;5060579;28;20044;-74
2022/03/29 04:48:06;;;;;;;14.38;10.02;;;14.20;62.40;;;;;;5060037;28;20041;-75
2022/03/29 04:50:32;;;;;;;18.67;11.27;;;14.20;62.50;;;;;;5059667;28;20067;-77
2022/03/29 04:53:01;;;;;;;20.63;12.63;;;14.30;62.30;;;;;;5060666;28;20058;-79
2022/03/29 04:55:32;;;;;;;19.50;12.20;;;14.30;61.70;;;;;;5043294;28;20049;-76
2022/03/29 04:58:00;;;;;;;22.80;13.23;;;14.40;61.30;;;;;;5059531;28;20143;-77
2022/03/29 05:00:26;;;;;;;22.13;13.90;;;14.40;60.80;;;;;;5077533;28;20052;-74
2022/03/29 05:02:53;;;;;;;22.58;13.50;;;14.40;60.50;;;;;;5061644;28;20079;-80
2022/03/29 05:05:22;;;;;;;20.52;13.25;;;14.40;60.30;;;;;;5036360;28;20037;-77
2022/03/29 05:07:47;;;;;;;21.70;14.30;;;14.50;60.50;;;;;;5037693;28;20049;-77
2022/03/29 05:11:23;;;;;;;;;;;;;;;;;;;;;
2022/03/29 05:25:36;;;;;;;11.43;7.82;;;15.30;61.80;;;;;;4937686;29;20115;-81
2022/03/29 05:28:03;;;;;;;14.38;8.13;;;15.60;61.50;;;;;;4980361;28;20041;-80
2022/03/29 05:30:59;;;;;;;11.93;7.25;;;15.70;61.20;;;;;;5039400;28;20099;-79
2022/03/29 05:38:01;;;;;;;12.88;6.97;;;15.90;61.20;;;;;;5056251;28;20103;-80
2022/03/29 05:40:28;;;;;;;20.35;7.88;;;16.00;61.20;;;;;;5056735;28;20352;-79
2022/03/29 05:42:55;;;;;;;15.40;7.05;;;15.80;60.70;;;;;;5022455;28;20045;-79
2022/03/29 05:45:21;;;;;;;14.15;7.85;;;15.90;61.30;;;;;;5074008;28;20044;-79
2022/03/29 05:50:40;;;;;;;15.75;6.50;;;16.00;61.90;;;;;;5078976;28;20518;-79
2022/03/29 05:53:06;;;;;;;14.25;6.40;;;16.10;62.10;;;;;;5079488;28;20123;-78
2022/03/29 05:55:31;;;;;;;17.27;6.82;;;16.10;62.00;;;;;;5069131;28;20443;-77
2022/03/29 05:57:57;;;;;;;12.48;6.30;;;16.20;61.90;;;;;;5038815;28;20063;-81
2022/03/29 06:00:25;;;;;;;16.48;6.28;;;16.30;61.80;;;;;;5021630;28;20412;-75
2022/03/29 06:02:53;;;;;;;16.70;5.88;;;16.40;61.80;;;;;;5053268;28;20053;-81
2022/03/29 06:05:19;;;;;;;15.05;6.68;;;16.50;61.50;;;;;;5038630;28;20119;-78
2022/03/29 06:12:11;;;;;;;12.65;5.68;;;16.50;61.30;;;;;;4975473;28;20121;-81
2022/03/29 06:37:37;;;;;;;;;;;;;;;;;;;;;
2022/03/29 06:41:26;;;;;;;11.18;5.80;;;16.70;60.50;;;;;;5015623;28;20107;-78
2022/03/29 06:44:37;;;;;;;;;;;;;;;;;;;;;
2022/03/29 06:50:59;;;;;;;10.13;6.10;;;16.50;60.20;;;;;;4934062;29;20039;-78
2022/03/29 06:54:09;;;;;;;7.97;5.10;;;16.50;60.40;;;;;;4920105;29;20062;-79
2022/03/29 06:56:41;;;;;;;8.30;5.70;;;16.40;60.40;;;;;;4935599;29;20052;-78
2022/03/29 06:59:11;;;;;;;11.48;6.40;;;16.40;60.50;;;;;;4994892;28;20049;-78
2022/03/29 07:01:55;;;;;;;9.50;6.10;;;16.30;60.50;;;;;;4997510;28;20120;-78
2022/03/29 07:04:24;;;;;;;8.68;5.13;;;16.30;60.40;;;;;;4998381;28;20046;-79
2022/03/29 07:07:02;;;;;;;9.88;6.15;;;16.30;60.60;;;;;;4997324;28;20046;-79
2022/03/29 07:12:21;;;;;;;9.18;5.88;;;16.20;60.60;;;;;;4998827;28;20046;-78
2022/03/29 07:14:50;;;;;;;11.55;6.00;;;16.20;60.70;;;;;;4998278;28;20049;-78
2022/03/29 07:17:17;;;;;;;7.95;5.38;;;16.10;60.60;;;;;;4923016;29;20071;-79
2022/03/29 07:19:48;;;;;;;8.65;6.38;;;16.10;60.70;;;;;;4923561;29;20047;-78
2022/03/29 07:22:14;;;;;;;10.48;6.47;;;16.10;60.80;;;;;;4938989;28;20036;-79
2022/03/29 07:24:49;;;;;;;8.27;6.32;;;16.00;60.80;;;;;;4923244;29;20062;-78
2022/03/29 07:27:18;;;;;;;11.85;6.22;;;16.00;60.70;;;;;;4922878;29;20050;-78
2022/03/29 07:29:43;;;;;;;9.27;5.85;;;16.00;60.80;;;;;;4938856;29;20055;-78
2022/03/29 07:32:09;;;;;;;10.60;6.05;;;15.90;60.70;;;;;;4912329;29;20078;-73
2022/03/29 07:35:04;;;;;;;13.05;6.70;;;15.90;60.70;;;;;;4937766;29;20043;-78
2022/03/29 07:41:54;;;;;;;;;;;;;;;;;;;;;
2022/03/29 07:45:07;;;;;;;11.02;6.97;;;16.00;60.40;;;;;;5025855;28;20081;-77
2022/03/29 07:48:00;;;;;;;10.23;5.35;;;16.10;60.60;;;;;;5004971;28;20041;-77
2022/03/29 07:53:49;;;;;;;10.25;6.07;;;16.40;60.30;;;;;;4950774;28;20057;-78
2022/03/29 07:56:14;;;;;;;10.93;5.80;;;16.50;60.10;;;;;;4980815;28;20045;-82
2022/03/29 07:59:02;;;;;;;10.77;5.65;;;16.60;60.10;;;;;;4997318;28;20046;-78
2022/03/29 08:01:29;;;;;;;9.55;5.60;;;16.70;60.10;;;;;;5014615;28;20022;-74
2022/03/29 08:04:11;;;;;;;15.85;5.35;;;16.70;60.10;;;;;;4956896;28;20086;-77
2022/03/29 08:07:15;;;;;;;8.68;5.53;;;16.70;60.10;;;;;;4995081;28;20054;-79
2022/03/29 08:17:20;;;;;;;10.13;4.90;;;16.80;60.60;;;;;;5014067;28;20068;-80
2022/03/29 08:19:48;;;;;;;9.27;5.57;;;16.80;60.70;;;;;;5014510;28;20512;-80
2022/03/29 08:22:27;;;;;;;;;;;;;;;;;;;;;
2022/03/29 08:37:26;;;;;;;11.88;5.65;;;17.30;60.10;;;;;;4792713;29;20066;-81
2022/03/29 08:41:45;;;;;;;9.93;5.53;;;17.40;60.20;;;;;;4719027;30;20045;-81
2022/03/29 08:52:12;;;;;;;8.65;5.47;;;17.60;59.90;;;;;;4630642;31;20435;-81
2022/03/29 08:54:40;;;;;;;13.85;5.32;;;17.50;59.60;;;;;;4619371;31;20043;-80
2022/03/29 08:57:15;;;;;;;9.02;4.97;;;17.50;59.60;;;;;;4661365;30;20127;-79
2022/03/29 08:59:44;;;;;;;8.48;4.93;;;17.40;59.50;;;;;;4768542;30;20062;-80
2022/03/29 09:02:17;;;;;;;8.38;4.72;;;17.40;59.60;;;;;;4833100;29;20691;-77
2022/03/29 09:06:02;;;;;;;9.23;4.85;;;17.30;59.60;;;;;;4827225;29;20497;-78
2022/03/29 09:08:20;;;;;;;11.90;5.40;;;17.30;59.70;;;;;;4839397;29;20414;-79
2022/03/29 09:18:07;;;;;;;8.70;6.00;;;16.60;59.30;;;;;;4956417;29;20138;-79
2022/03/29 09:20:36;;;;;;;9.88;5.55;;;16.50;62.10;;;;;;4942436;29;20047;-80
2022/03/29 09:23:03;;;;;;;9.55;5.88;;;16.60;61.60;;;;;;4986463;28;20054;-77
2022/03/29 09:25:38;;;;;;;7.50;5.75;;;16.60;61.70;;;;;;4990739;28;20046;-79
2022/03/29 09:28:39;;;;;;;8.27;5.78;;;16.70;61.70;;;;;;4979608;28;20042;-78
2022/03/29 09:31:20;;;;;;;13.85;6.72;;;16.80;61.60;;;;;;4903404;28;20054;-75
2022/03/29 09:34:18;;;;;;;9.55;5.55;;;16.90;61.90;;;;;;4972537;28;20360;-82
2022/03/29 09:36:52;;;;;;;9.85;5.47;;;16.90;61.80;;;;;;4976993;28;20046;-77
2022/03/29 09:44:08;;;;;;;13.50;5.80;;;16.90;62.20;;;;;;5004554;28;20069;-78
2022/03/29 09:47:49;;;;;;;;;;;;;;;;;;;;;
2022/03/29 09:50:39;;;;;;;10.70;6.45;;;16.90;61.60;;;;;;4957326;28;20083;-79
2022/03/29 09:53:05;;;;;;;10.18;6.18;;;16.80;62.40;;;;;;5003161;28;20120;-81
2022/03/29 09:55:38;;;;;;;8.50;5.78;;;16.80;63.20;;;;;;5015025;28;20125;-80
2022/03/29 09:58:16;;;;;;;11.23;6.20;;;16.80;63.50;;;;;;4998986;28;20154;-79
2022/03/29 10:00:44;;;;;;;11.40;6.05;;;16.80;64.60;;;;;;4978801;28;20054;-80
2022/03/29 10:03:11;;;;;;;10.75;5.75;;;16.80;64.10;;;;;;4979134;28;20046;-78
2022/03/29 10:05:46;;;;;;;11.80;6.22;;;16.60;62.90;;;;;;4979730;28;20088;-77
2022/03/29 10:14:06;;;;;;;18.30;7.95;;;16.60;65.70;;;;;;5004994;28;20042;-77
2022/03/29 10:16:38;;;;;;;12.82;6.55;;;16.50;62.10;;;;;;4976999;28;20049;-74
2022/03/29 10:19:06;;;;;;;10.88;6.43;;;16.50;65.10;;;;;;4982428;28;20038;-77
2022/03/29 10:22:01;;;;;;;11.73;6.10;;;16.60;64.70;;;;;;5011030;28;20069;-81
2022/03/29 10:24:38;;;;;;;17.00;7.55;;;16.60;63.70;;;;;;5008485;28;20060;-80
2022/03/29 10:27:08;;;;;;;13.57;7.60;;;16.60;62.60;;;;;;4984460;28;20385;-78
2022/03/29 10:29:35;;;;;;;16.05;7.43;;;16.70;62.50;;;;;;4982734;28;20042;-73
2022/03/29 10:32:08;;;;;;;15.50;7.72;;;16.70;61.80;;;;;;5016168;28;20045;-77
2022/03/29 10:34:40;;;;;;;16.88;8.38;;;16.70;61.20;;;;;;5001832;28;20050;-77
2022/03/29 10:37:16;;;;;;;17.55;8.60;;;16.70;61.10;;;;;;4998558;28;20339;-79
2022/03/29 10:39:48;;;;;;;24.85;8.38;;;16.80;60.80;;;;;;5011983;28;20089;-75
2022/03/29 10:42:32;;;;;;;16.25;8.07;;;16.80;60.40;;;;;;5015734;28;20076;-77
2022/03/29 10:44:59;;;;;;;16.02;8.13;;;16.80;60.30;;;;;;4998561;28;20038;-78
2022/03/29 10:47:29;;;;;;;15.45;8.07;;;16.80;60.00;;;;;;4981935;28;20056;-78
2022/03/29 10:49:55;;;;;;;20.67;7.75;;;16.80;59.70;;;;;;5015726;28;20098;-76
2022/03/29 10:52:29;;;;;;;17.77;8.20;;;16.80;59.80;;;;;;5015804;28;20357;-77
2022/03/29 10:55:16;;;;;;;18.80;8.40;;;16.80;59.70;;;;;;4991924;28;20100;-76
2022/03/29 10:58:05;;;;;;;16.70;8.27;;;16.80;59.60;;;;;;4998769;28;20050;-80
2022/03/29 11:00:43;;;;;;;14.68;7.55;;;16.80;59.60;;;;;;4995512;28;20046;-78
2022/03/29 11:03:14;;;;;;;17.38;8.60;;;16.80;59.00;;;;;;4998349;28;20045;-77
2022/03/29 11:06:12;;;;;;;18.23;8.35;;;16.80;58.90;;;;;;5015684;28;20046;-78
2022/03/29 11:08:45;;;;;;;20.77;7.88;;;16.80;59.50;;;;;;5015302;28;20042;-78
2022/03/29 11:11:39;;;;;;;15.48;7.55;;;16.80;59.50;;;;;;5015547;28;20108;-74
2022/03/29 11:14:34;;;;;;;19.73;8.03;;;16.80;59.40;;;;;;5015758;28;20089;-77
2022/03/29 11:17:09;;;;;;;18.10;7.60;;;16.80;59.30;;;;;;5015127;28;20046;-75
2022/03/29 11:19:46;;;;;;;18.70;7.57;;;16.80;59.60;;;;;;5015719;28;20107;-76
2022/03/29 11:22:42;;;;;;;21.55;7.80;;;16.80;59.50;;;;;;5015438;28;20128;-73
2022/03/29 11:25:10;;;;;;;15.15;7.50;;;16.80;59.70;;;;;;4986391;28;20058;-75
2022/03/29 11:27:37;;;;;;;18.73;6.35;;;16.80;59.20;;;;;;4995600;28;20046;-75
2022/03/29 11:30:09;;;;;;;14.43;7.05;;;16.80;58.90;;;;;;4995770;28;20057;-75
2022/03/29 11:32:36;;;;;;;17.63;7.22;;;16.80;58.90;;;;;;5003543;28;20088;-76
2022/03/29 11:35:05;;;;;;;15.18;7.60;;;16.80;58.00;;;;;;5013940;28;20057;-77
2022/03/29 11:37:33;;;;;;;16.90;6.55;;;16.80;56.80;;;;;;4998170;28;20062;-75
2022/03/29 11:40:02;;;;;;;23.80;7.60;;;16.60;57.10;;;;;;5014263;28;20357;-74
2022/03/29 11:42:50;;;;;;;16.70;7.80;;;16.50;57.70;;;;;;5014454;28;20049;-75
2022/03/29 11:45:18;;;;;;;18.35;7.20;;;16.50;59.50;;;;;;5023125;28;20052;-75
2022/03/29 11:47:57;;;;;;;19.90;7.22;;;16.50;60.20;;;;;;5034822;28;20049;-77
2022/03/29 11:50:45;;;;;;;19.23;6.32;;;16.60;61.20;;;;;;4998621;28;20057;-76
2022/03/29 11:53:24;;;;;;;17.95;6.53;;;16.60;61.30;;;;;;4990293;28;20090;-75
2022/03/29 11:56:04;;;;;;;16.95;7.50;;;16.70;62.90;;;;;;4978474;28;20105;-75
2022/03/29 11:58:34;;;;;;;17.80;6.28;;;16.70;62.40;;;;;;4976748;28;20064;-75
2022/03/29 12:01:03;;;;;;;18.38;6.68;;;16.70;62.60;;;;;;4999169;28;20066;-76
2022/03/29 12:03:34;;;;;;;18.75;6.03;;;16.70;62.40;;;;;;4995717;28;20497;-75
2022/03/29 12:06:17;;;;;;;19.20;5.95;;;16.80;62.50;;;;;;5001596;28;20089;-76
2022/03/29 12:08:42;;;;;;;14.50;6.05;;;16.80;62.50;;;;;;5019246;28;20393;-74
2022/03/29 12:11:09;;;;;;;11.93;5.53;;;16.80;62.50;;;;;;5018892;28;20056;-76
2022/03/29 12:13:34;;;;;;;15.07;5.88;;;16.80;62.60;;;;;;5001602;28;20057;-76
2022/03/29 12:16:17;;;;;;;16.95;6.00;;;16.80;62.60;;;;;;5001652;28;20133;-74
2022/03/29 12:18:42;;;;;;;12.23;5.80;;;16.80;62.80;;;;;;5018159;28;20432;-76
2022/03/29 12:21:14;;;;;;;15.77;6.20;;;16.80;62.60;;;;;;4998770;28;20054;-75
2022/03/29 12:23:41;;;;;;;12.57;5.60;;;16.80;62.60;;;;;;4999334;28;20042;-75
2022/03/29 12:26:09;;;;;;;12.35;5.88;;;16.80;62.60;;;;;;4999265;28;20121;-76
2022/03/29 12:28:37;;;;;;;14.35;5.68;;;16.80;62.80;;;;;;5011067;28;20056;-75
2022/03/29 12:31:08;;;;;;;11.25;4.65;;;16.80;62.80;;;;;;5017656;28;20056;-74
2022/03/29 12:33:35;;;;;;;11.18;5.25;;;16.80;62.80;;;;;;4983563;28;20046;-76
2022/03/29 12:36:12;;;;;;;11.75;4.93;;;16.80;62.70;;;;;;4998206;28;20046;-76
2022/03/29 12:38:45;;;;;;;14.60;4.88;;;16.80;62.80;;;;;;4998398;28;20054;-75
2022/03/29 12:41:12;;;;;;;11.85;5.32;;;16.70;62.80;;;;;;4998692;28;20054;-76
2022/03/29 12:43:40;;;;;;;11.82;5.00;;;16.70;62.80;;;;;;4978795;28;20437;-75
2022/03/29 12:46:09;;;;;;;10.45;4.65;;;16.70;62.70;;;;;;4981317;28;20057;-76
2022/03/29 12:48:38;;;;;;;10.55;4.78;;;16.70;62.70;;;;;;4981079;28;20046;-76
2022/03/29 12:51:07;;;;;;;9.85;5.35;;;16.70;62.70;;;;;;4998447;28;20120;-75
2022/03/29 12:53:34;;;;;;;11.15;5.47;;;16.70;62.60;;;;;;4998259;28;20058;-75
2022/03/29 12:56:00;;;;;;;11.82;5.18;;;16.70;62.60;;;;;;4981709;28;20057;-77
2022/03/29 12:58:37;;;;;;;10.85;4.95;;;16.70;62.60;;;;;;5010153;28;20129;-76
2022/03/29 13:01:05;;;;;;;12.02;5.07;;;16.70;62.60;;;;;;4981199;28;20125;-75
2022/03/29 13:03:45;;;;;;;8.15;4.32;;;16.70;62.60;;;;;;4996601;28;20042;-75
2022/03/29 13:06:11;;;;;;;10.85;4.70;;;16.70;62.70;;;;;;4998034;28;20073;-74
2022/03/29 13:08:37;;;;;;;10.57;4.63;;;16.80;62.70;;;;;;4997614;28;20054;-75
2022/03/29 13:11:17;;;;;;;8.73;4.63;;;16.70;62.70;;;;;;4998605;28;20062;-74
2022/03/29 13:13:42;;;;;;;9.63;4.10;;;16.70;62.70;;;;;;4998075;28;20046;-74
2022/03/29 13:16:19;;;;;;;9.20;5.18;;;16.70;62.70;;;;;;4998377;28;20463;-75
2022/03/29 13:18:45;;;;;;;10.63;4.55;;;16.70;62.80;;;;;;4995899;28;20050;-74
2022/03/29 13:21:15;;;;;;;10.00;4.90;;;16.70;62.80;;;;;;4982046;28;20089;-75
2022/03/29 13:23:43;;;;;;;10.90;5.40;;;16.70;62.90;;;;;;5017231;28;20042;-76
2022/03/29 13:26:12;;;;;;;10.98;4.32;;;16.70;62.90;;;;;;5017712;28;20084;-76
2022/03/29 13:28:39;;;;;;;9.25;4.38;;;16.70;63.00;;;;;;5017381;28;20135;-75
2022/03/29 13:31:06;;;;;;;9.25;4.45;;;16.70;63.00;;;;;;5016922;28;20412;-76
2022/03/29 13:33:33;;;;;;;7.93;3.97;;;16.70;63.00;;;;;;5001889;28;20045;-75
2022/03/29 13:36:09;;;;;;;7.22;4.40;;;16.70;63.00;;;;;;4997881;28;20050;-75
2022/03/29 13:38:35;;;;;;;12.02;5.05;;;16.70;63.00;;;;;;5011898;28;20414;-76
2022/03/29 13:41:01;;;;;;;12.50;5.70;;;16.70;62.90;;;;;;5006240;28;20054;-74
2022/03/29 13:43:26;;;;;;;10.60;6.25;;;16.70;62.40;;;;;;4979881;28;20137;-75
2022/03/29 13:45:52;;;;;;;14.65;7.30;;;16.60;61.60;;;;;;4997407;28;20196;-76
2022/03/29 13:48:18;;;;;;;16.35;8.85;;;16.60;60.70;;;;;;4995936;28;20100;-73
2022/03/29 13:50:44;;;;;;;18.75;9.27;;;16.60;59.10;;;;;;4997238;28;20088;-76
2022/03/29 13:53:10;;;;;;;13.88;7.25;;;16.60;58.40;;;;;;4997520;28;20434;-76
2022/03/29 13:55:36;;;;;;;14.02;7.70;;;16.60;58.30;;;;;;4997184;28;20057;-75
2022/03/29 13:58:04;;;;;;;11.77;7.53;;;16.60;58.80;;;;;;4980040;28;20524;-75
2022/03/29 14:00:34;;;;;;;17.02;7.65;;;16.60;59.00;;;;;;4997249;28;20054;-76
2022/03/29 14:03:01;;;;;;;18.10;8.45;;;16.60;59.30;;;;;;5012220;28;20065;-75
2022/03/29 14:05:28;;;;;;;15.48;8.82;;;16.60;59.10;;;;;;5010691;28;20097;-78
2022/03/29 14:07:58;;;;;;;15.00;7.75;;;16.60;58.80;;;;;;4997171;28;20042;-78
2022/03/29 14:10:25;;;;;;;17.92;9.10;;;16.60;57.70;;;;;;5008114;28;20042;-78
2022/03/29 14:12:51;;;;;;;17.83;9.82;;;16.60;57.10;;;;;;5011438;28;20061;-78
2022/03/29 14:15:19;;;;;;;19.05;9.45;;;16.60;56.30;;;;;;4979516;28;20057;-77
2022/03/29 14:17:44;;;;;;;15.80;8.77;;;16.60;56.50;;;;;;4996955;28;20054;-78
2022/03/29 14:20:11;;;;;;;18.42;8.10;;;16.60;56.40;;;;;;4996575;28;20053;-79
2022/03/29 14:22:37;;;;;;;14.05;8.65;;;16.60;56.60;;;;;;4995974;28;20050;-74
2022/03/29 14:25:04;;;;;;;18.92;8.73;;;16.50;56.90;;;;;;4979783;28;20086;-77
2022/03/29 14:27:30;;;;;;;19.63;8.85;;;16.50;57.40;;;;;;4996808;28;20061;-78
2022/03/29 14:29:56;;;;;;;20.17;7.97;;;16.50;57.70;;;;;;4980810;28;20050;-78
2022/03/29 14:32:22;;;;;;;15.18;8.15;;;16.50;58.00;;;;;;4995154;28;20058;-75
2022/03/29 14:34:50;;;;;;;17.10;8.52;;;16.50;58.50;;;;;;4996236;28;20085;-75
2022/03/29 14:37:17;;;;;;;18.02;8.02;;;16.40;58.70;;;;;;4993007;28;20092;-74
2022/03/29 14:39:43;;;;;;;15.93;6.40;;;16.40;58.70;;;;;;4996090;28;20037;-74
2022/03/29 14:42:09;;;;;;;17.17;7.45;;;16.50;59.30;;;;;;4996305;28;20053;-74
2022/03/29 14:44:34;;;;;;;14.10;6.82;;;16.50;60.60;;;;;;4996208;28;20442;-75
2022/03/29 14:47:00;;;;;;;18.25;6.97;;;16.50;60.70;;;;;;4996280;28;20054;-76
2022/03/29 14:49:27;;;;;;;15.65;7.57;;;16.60;60.30;;;;;;4996774;28;20054;-75
2022/03/29 14:51:58;;;;;;;18.30;6.68;;;16.60;60.30;;;;;;4994954;28;20054;-76
2022/03/29 14:54:24;;;;;;;16.48;6.53;;;16.70;60.10;;;;;;4979306;28;20455;-75
2022/03/29 14:56:51;;;;;;;16.77;6.63;;;16.70;60.50;;;;;;4995743;28;20046;-76